sensor_id;sensor_type;location;lat;lon;timestamp;temperature;humidity
78455;SHT31;67751;51.986;5.696;2023-03-20T00:00:18;12.0;68.8
78455;SHT31;67751;51.986;5.696;2023-03-20T00:02:49;12.0;68.5
78455;SHT31;67751;51.986;5.696;2023-03-20T00:05:21;12.0;68.9
78455;SHT31;67751;51.986;5.696;2023-03-20T00:07:51;12.0;68.8
78455;SHT31;67751;51.986;5.696;2023-03-20T00:10:25;11.9;68.7
78455;SHT31;67751;51.986;5.696;2023-03-20T00:12:57;11.9;68.7
78455;SHT31;67751;51.986;5.696;2023-03-20T00:15:30;11.9;68.6
78455;SHT31;67751;51.986;5.696;2023-03-20T00:18:00;11.9;68.4
78455;SHT31;67751;51.986;5.696;2023-03-20T00:20:32;11.9;68.5
78455;SHT31;67751;51.986;5.696;2023-03-20T00:23:02;11.9;68.6
78455;SHT31;67751;51.986;5.696;2023-03-20T00:25:31;11.8;68.8
78455;SHT31;67751;51.986;5.696;2023-03-20T00:28:25;11.8;68.4
78455;SHT31;67751;51.986;5.696;2023-03-20T00:30:57;11.8;68.0
78455;SHT31;67751;51.986;5.696;2023-03-20T00:33:27;11.8;68.5
78455;SHT31;67751;51.986;5.696;2023-03-20T00:35:57;11.8;68.8
78455;SHT31;67751;51.986;5.696;2023-03-20T00:38:28;11.7;68.3
78455;SHT31;67751;51.986;5.696;2023-03-20T00:40:57;11.7;68.7
78455;SHT31;67751;51.986;5.696;2023-03-20T00:43:27;11.7;68.6
78455;SHT31;67751;51.986;5.696;2023-03-20T00:45:58;11.7;68.5
78455;SHT31;67751;51.986;5.696;2023-03-20T00:48:29;11.7;68.6
78455;SHT31;67751;51.986;5.696;2023-03-20T00:50:59;11.7;68.8
78455;SHT31;67751;51.986;5.696;2023-03-20T00:53:29;11.7;69.0
78455;SHT31;67751;51.986;5.696;2023-03-20T00:56:00;11.7;68.9
78455;SHT31;67751;51.986;5.696;2023-03-20T00:58:31;11.7;68.6
78455;SHT31;67751;51.986;5.696;2023-03-20T01:01:03;11.7;68.7
78455;SHT31;67751;51.986;5.696;2023-03-20T01:03:34;11.7;68.8
78455;SHT31;67751;51.986;5.696;2023-03-20T01:06:05;11.7;68.7
78455;SHT31;67751;51.986;5.696;2023-03-20T01:08:35;11.7;68.9
78455;SHT31;67751;51.986;5.696;2023-03-20T01:11:05;11.7;68.8
78455;SHT31;67751;51.986;5.696;2023-03-20T01:13:37;11.7;69.1
78455;SHT31;67751;51.986;5.696;2023-03-20T01:16:21;11.7;68.8
78455;SHT31;67751;51.986;5.696;2023-03-20T01:18:51;11.7;68.7
78455;SHT31;67751;51.986;5.696;2023-03-20T01:21:21;11.6;69.1
78455;SHT31;67751;51.986;5.696;2023-03-20T01:23:50;11.6;69.1
78455;SHT31;67751;51.986;5.696;2023-03-20T01:26:25;11.6;69.1
78455;SHT31;67751;51.986;5.696;2023-03-20T01:28:55;11.6;69.4
78455;SHT31;67751;51.986;5.696;2023-03-20T01:31:25;11.6;69.4
78455;SHT31;67751;51.986;5.696;2023-03-20T01:33:54;11.6;69.1
78455;SHT31;67751;51.986;5.696;2023-03-20T01:36:24;11.5;69.3
78455;SHT31;67751;51.986;5.696;2023-03-20T01:38:57;11.5;69.6
78455;SHT31;67751;51.986;5.696;2023-03-20T01:41:28;11.5;69.4
78455;SHT31;67751;51.986;5.696;2023-03-20T01:44:18;11.5;69.3
78455;SHT31;67751;51.986;5.696;2023-03-20T01:46:43;11.5;68.8
78455;SHT31;67751;51.986;5.696;2023-03-20T01:52:17;11.5;66.7
78455;SHT31;67751;51.986;5.696;2023-03-20T01:54:47;11.5;67.2
78455;SHT31;67751;51.986;5.696;2023-03-20T01:57:20;11.5;66.6
78455;SHT31;67751;51.986;5.696;2023-03-20T01:59:56;11.5;66.1
78455;SHT31;67751;51.986;5.696;2023-03-20T02:02:30;11.5;65.3
78455;SHT31;67751;51.986;5.696;2023-03-20T02:05:03;11.5;65.2
78455;SHT31;67751;51.986;5.696;2023-03-20T02:07:36;11.5;65.0
78455;SHT31;67751;51.986;5.696;2023-03-20T02:10:09;11.5;65.2
78455;SHT31;67751;51.986;5.696;2023-03-20T02:12:42;11.5;64.5
78455;SHT31;67751;51.986;5.696;2023-03-20T02:15:15;11.5;64.3
78455;SHT31;67751;51.986;5.696;2023-03-20T02:17:47;11.5;64.8
78455;SHT31;67751;51.986;5.696;2023-03-20T02:20:24;11.5;64.5
78455;SHT31;67751;51.986;5.696;2023-03-20T02:23:23;11.5;64.6
78455;SHT31;67751;51.986;5.696;2023-03-20T02:28:22;11.5;64.2
78455;SHT31;67751;51.986;5.696;2023-03-20T02:31:15;11.5;64.2
78455;SHT31;67751;51.986;5.696;2023-03-20T02:34:19;11.5;64.9
78455;SHT31;67751;51.986;5.696;2023-03-20T02:37:17;11.5;65.0
78455;SHT31;67751;51.986;5.696;2023-03-20T02:40:07;11.5;63.7
78455;SHT31;67751;51.986;5.696;2023-03-20T02:42:44;11.5;63.7
78455;SHT31;67751;51.986;5.696;2023-03-20T02:45:17;11.5;64.1
78455;SHT31;67751;51.986;5.696;2023-03-20T02:47:57;11.5;64.3
78455;SHT31;67751;51.986;5.696;2023-03-20T02:50:36;11.5;64.6
78455;SHT31;67751;51.986;5.696;2023-03-20T02:53:19;11.5;64.3
78455;SHT31;67751;51.986;5.696;2023-03-20T02:56:01;11.5;64.5
78455;SHT31;67751;51.986;5.696;2023-03-20T02:58:40;11.5;64.6
78455;SHT31;67751;51.986;5.696;2023-03-20T03:01:16;11.4;65.0
78455;SHT31;67751;51.986;5.696;2023-03-20T03:03:52;11.4;65.1
78455;SHT31;67751;51.986;5.696;2023-03-20T03:06:27;11.4;64.9
78455;SHT31;67751;51.986;5.696;2023-03-20T03:09:03;11.4;64.3
78455;SHT31;67751;51.986;5.696;2023-03-20T03:11:39;11.4;64.9
78455;SHT31;67751;51.986;5.696;2023-03-20T03:14:16;11.4;65.1
78455;SHT31;67751;51.986;5.696;2023-03-20T03:16:49;11.4;65.5
78455;SHT31;67751;51.986;5.696;2023-03-20T03:19:23;11.4;65.0
78455;SHT31;67751;51.986;5.696;2023-03-20T03:21:54;11.3;65.2
78455;SHT31;67751;51.986;5.696;2023-03-20T03:24:27;11.3;65.4
78455;SHT31;67751;51.986;5.696;2023-03-20T03:27:01;11.3;65.8
78455;SHT31;67751;51.986;5.696;2023-03-20T03:29:35;11.3;66.0
78455;SHT31;67751;51.986;5.696;2023-03-20T03:32:21;11.3;66.2
78455;SHT31;67751;51.986;5.696;2023-03-20T03:34:52;11.3;65.9
78455;SHT31;67751;51.986;5.696;2023-03-20T03:37:29;11.3;65.8
78455;SHT31;67751;51.986;5.696;2023-03-20T03:40:14;11.2;65.7
78455;SHT31;67751;51.986;5.696;2023-03-20T03:42:52;11.2;65.7
78455;SHT31;67751;51.986;5.696;2023-03-20T03:45:29;11.2;65.5
78455;SHT31;67751;51.986;5.696;2023-03-20T03:48:05;11.1;65.1
78455;SHT31;67751;51.986;5.696;2023-03-20T03:50:41;11.1;65.4
78455;SHT31;67751;51.986;5.696;2023-03-20T03:53:19;11.1;65.7
78455;SHT31;67751;51.986;5.696;2023-03-20T03:55:53;11.1;65.4
78455;SHT31;67751;51.986;5.696;2023-03-20T03:58:29;11.0;65.2
78455;SHT31;67751;51.986;5.696;2023-03-20T04:01:02;11.0;65.4
78455;SHT31;67751;51.986;5.696;2023-03-20T04:03:37;10.9;65.8
78455;SHT31;67751;51.986;5.696;2023-03-20T04:06:10;10.9;66.1
78455;SHT31;67751;51.986;5.696;2023-03-20T04:08:41;10.9;65.5
78455;SHT31;67751;51.986;5.696;2023-03-20T04:11:15;10.9;65.5
78455;SHT31;67751;51.986;5.696;2023-03-20T04:13:48;10.8;66.2
78455;SHT31;67751;51.986;5.696;2023-03-20T04:16:20;10.8;66.1
78455;SHT31;67751;51.986;5.696;2023-03-20T04:18:50;10.8;65.8
78455;SHT31;67751;51.986;5.696;2023-03-20T04:21:22;10.8;65.9
78455;SHT31;67751;51.986;5.696;2023-03-20T04:23:51;10.8;66.2
78455;SHT31;67751;51.986;5.696;2023-03-20T04:26:21;10.7;66.2
78455;SHT31;67751;51.986;5.696;2023-03-20T04:28:51;10.7;66.4
78455;SHT31;67751;51.986;5.696;2023-03-20T04:31:21;10.7;66.1
78455;SHT31;67751;51.986;5.696;2023-03-20T04:33:51;10.7;66.2
78455;SHT31;67751;51.986;5.696;2023-03-20T04:36:21;10.7;66.3
78455;SHT31;67751;51.986;5.696;2023-03-20T04:38:51;10.7;66.0
78455;SHT31;67751;51.986;5.696;2023-03-20T04:41:20;10.7;66.2
78455;SHT31;67751;51.986;5.696;2023-03-20T04:43:50;10.6;66.3
78455;SHT31;67751;51.986;5.696;2023-03-20T04:46:20;10.6;66.2
78455;SHT31;67751;51.986;5.696;2023-03-20T04:48:49;10.6;66.3
78455;SHT31;67751;51.986;5.696;2023-03-20T04:51:19;10.6;66.7
78455;SHT31;67751;51.986;5.696;2023-03-20T04:53:48;10.6;66.9
78455;SHT31;67751;51.986;5.696;2023-03-20T04:56:18;10.6;66.6
78455;SHT31;67751;51.986;5.696;2023-03-20T04:58:47;10.6;67.2
78455;SHT31;67751;51.986;5.696;2023-03-20T05:01:17;10.6;66.9
78455;SHT31;67751;51.986;5.696;2023-03-20T05:03:47;10.6;66.8
78455;SHT31;67751;51.986;5.696;2023-03-20T05:06:16;10.6;66.4
78455;SHT31;67751;51.986;5.696;2023-03-20T05:08:46;10.5;66.3
78455;SHT31;67751;51.986;5.696;2023-03-20T05:11:15;10.5;66.4
78455;SHT31;67751;51.986;5.696;2023-03-20T05:13:45;10.5;66.6
78455;SHT31;67751;51.986;5.696;2023-03-20T05:16:15;10.5;66.2
78455;SHT31;67751;51.986;5.696;2023-03-20T05:18:45;10.5;66.4
78455;SHT31;67751;51.986;5.696;2023-03-20T05:21:15;10.5;66.7
78455;SHT31;67751;51.986;5.696;2023-03-20T05:23:45;10.5;66.4
78455;SHT31;67751;51.986;5.696;2023-03-20T05:26:14;10.4;65.9
78455;SHT31;67751;51.986;5.696;2023-03-20T05:28:44;10.4;66.3
78455;SHT31;67751;51.986;5.696;2023-03-20T05:31:13;10.4;65.7
78455;SHT31;67751;51.986;5.696;2023-03-20T05:33:43;10.4;66.2
78455;SHT31;67751;51.986;5.696;2023-03-20T05:36:13;10.4;66.8
78455;SHT31;67751;51.986;5.696;2023-03-20T05:38:43;10.4;66.0
78455;SHT31;67751;51.986;5.696;2023-03-20T05:41:13;10.4;66.1
78455;SHT31;67751;51.986;5.696;2023-03-20T05:43:42;10.4;66.2
78455;SHT31;67751;51.986;5.696;2023-03-20T05:46:13;10.4;66.1
78455;SHT31;67751;51.986;5.696;2023-03-20T05:48:43;10.4;65.8
78455;SHT31;67751;51.986;5.696;2023-03-20T05:51:12;10.3;65.9
78455;SHT31;67751;51.986;5.696;2023-03-20T05:53:42;10.3;66.5
78455;SHT31;67751;51.986;5.696;2023-03-20T05:56:12;10.3;66.1
78455;SHT31;67751;51.986;5.696;2023-03-20T05:58:42;10.3;65.9
78455;SHT31;67751;51.986;5.696;2023-03-20T06:01:11;10.3;65.8
78455;SHT31;67751;51.986;5.696;2023-03-20T06:03:43;10.3;65.5
78455;SHT31;67751;51.986;5.696;2023-03-20T06:06:13;10.3;65.6
78455;SHT31;67751;51.986;5.696;2023-03-20T06:08:47;10.3;66.2
78455;SHT31;67751;51.986;5.696;2023-03-20T06:11:17;10.3;66.2
78455;SHT31;67751;51.986;5.696;2023-03-20T06:13:47;10.3;66.4
78455;SHT31;67751;51.986;5.696;2023-03-20T06:16:21;10.3;65.8
78455;SHT31;67751;51.986;5.696;2023-03-20T06:18:53;10.3;66.0
78455;SHT31;67751;51.986;5.696;2023-03-20T06:21:23;10.3;65.9
78455;SHT31;67751;51.986;5.696;2023-03-20T06:23:52;10.3;66.0
78455;SHT31;67751;51.986;5.696;2023-03-20T06:26:24;10.3;66.0
78455;SHT31;67751;51.986;5.696;2023-03-20T06:28:54;10.3;66.2
78455;SHT31;67751;51.986;5.696;2023-03-20T06:31:24;10.3;66.6
78455;SHT31;67751;51.986;5.696;2023-03-20T06:33:54;10.3;66.4
78455;SHT31;67751;51.986;5.696;2023-03-20T06:36:24;10.3;66.7
78455;SHT31;67751;51.986;5.696;2023-03-20T06:38:54;10.3;66.7
78455;SHT31;67751;51.986;5.696;2023-03-20T06:41:24;10.3;67.0
78455;SHT31;67751;51.986;5.696;2023-03-20T06:43:54;10.2;67.6
78455;SHT31;67751;51.986;5.696;2023-03-20T06:46:24;10.2;67.0
78455;SHT31;67751;51.986;5.696;2023-03-20T06:48:54;10.2;67.3
78455;SHT31;67751;51.986;5.696;2023-03-20T06:51:24;10.2;67.3
78455;SHT31;67751;51.986;5.696;2023-03-20T06:53:53;10.2;67.0
78455;SHT31;67751;51.986;5.696;2023-03-20T06:56:23;10.2;66.6
78455;SHT31;67751;51.986;5.696;2023-03-20T06:58:53;10.2;66.7
78455;SHT31;67751;51.986;5.696;2023-03-20T07:01:22;10.2;67.2
78455;SHT31;67751;51.986;5.696;2023-03-20T07:03:54;10.2;67.1
78455;SHT31;67751;51.986;5.696;2023-03-20T07:06:24;10.2;67.1
78455;SHT31;67751;51.986;5.696;2023-03-20T07:08:54;10.2;67.3
78455;SHT31;67751;51.986;5.696;2023-03-20T07:11:23;10.2;67.2
78455;SHT31;67751;51.986;5.696;2023-03-20T07:13:53;10.2;67.2
78455;SHT31;67751;51.986;5.696;2023-03-20T07:16:23;10.1;67.1
78455;SHT31;67751;51.986;5.696;2023-03-20T07:18:52;10.1;67.2
78455;SHT31;67751;51.986;5.696;2023-03-20T07:21:24;10.1;67.2
78455;SHT31;67751;51.986;5.696;2023-03-20T07:23:56;10.1;67.8
78455;SHT31;67751;51.986;5.696;2023-03-20T07:26:26;10.1;68.0
78455;SHT31;67751;51.986;5.696;2023-03-20T07:28:57;10.1;67.5
78455;SHT31;67751;51.986;5.696;2023-03-20T07:31:28;10.1;67.8
78455;SHT31;67751;51.986;5.696;2023-03-20T07:33:58;10.1;67.8
78455;SHT31;67751;51.986;5.696;2023-03-20T07:36:28;10.1;67.5
78455;SHT31;67751;51.986;5.696;2023-03-20T07:38:57;10.1;67.8
78455;SHT31;67751;51.986;5.696;2023-03-20T07:41:27;10.1;67.5
78455;SHT31;67751;51.986;5.696;2023-03-20T07:43:59;10.1;67.4
78455;SHT31;67751;51.986;5.696;2023-03-20T07:46:30;10.1;67.0
78455;SHT31;67751;51.986;5.696;2023-03-20T07:49:00;10.1;67.1
78455;SHT31;67751;51.986;5.696;2023-03-20T07:51:30;10.1;67.5
78455;SHT31;67751;51.986;5.696;2023-03-20T07:53:59;10.1;67.9
78455;SHT31;67751;51.986;5.696;2023-03-20T07:56:29;10.1;67.7
78455;SHT31;67751;51.986;5.696;2023-03-20T07:58:58;10.1;67.9
78455;SHT31;67751;51.986;5.696;2023-03-20T08:01:28;10.1;68.2
78455;SHT31;67751;51.986;5.696;2023-03-20T08:03:59;10.1;67.7
78455;SHT31;67751;51.986;5.696;2023-03-20T08:06:29;10.1;67.4
78455;SHT31;67751;51.986;5.696;2023-03-20T08:08:58;10.2;67.8
78455;SHT31;67751;51.986;5.696;2023-03-20T08:11:28;10.2;67.8
78455;SHT31;67751;51.986;5.696;2023-03-20T08:13:58;10.2;67.6
78455;SHT31;67751;51.986;5.696;2023-03-20T08:16:28;10.2;66.8
78455;SHT31;67751;51.986;5.696;2023-03-20T08:18:57;10.2;66.9
78455;SHT31;67751;51.986;5.696;2023-03-20T08:21:28;10.2;67.1
78455;SHT31;67751;51.986;5.696;2023-03-20T08:23:58;10.2;67.0
78455;SHT31;67751;51.986;5.696;2023-03-20T08:26:28;10.2;66.9
78455;SHT31;67751;51.986;5.696;2023-03-20T08:28:58;10.2;66.9
78455;SHT31;67751;51.986;5.696;2023-03-20T08:31:27;10.2;66.9
78455;SHT31;67751;51.986;5.696;2023-03-20T08:33:58;10.2;66.9
78455;SHT31;67751;51.986;5.696;2023-03-20T08:36:29;10.3;66.4
78455;SHT31;67751;51.986;5.696;2023-03-20T08:38:59;10.3;66.5
78455;SHT31;67751;51.986;5.696;2023-03-20T08:41:29;10.3;66.6
78455;SHT31;67751;51.986;5.696;2023-03-20T08:43:58;10.3;67.1
78455;SHT31;67751;51.986;5.696;2023-03-20T08:46:28;10.3;66.7
78455;SHT31;67751;51.986;5.696;2023-03-20T08:48:57;10.3;67.4
78455;SHT31;67751;51.986;5.696;2023-03-20T08:51:27;10.4;67.3
78455;SHT31;67751;51.986;5.696;2023-03-20T08:53:57;10.4;66.5
78455;SHT31;67751;51.986;5.696;2023-03-20T08:56:27;10.4;66.5
78455;SHT31;67751;51.986;5.696;2023-03-20T08:58:57;10.4;66.4
78455;SHT31;67751;51.986;5.696;2023-03-20T09:01:26;10.5;66.4
78455;SHT31;67751;51.986;5.696;2023-03-20T09:03:56;10.5;65.3
78455;SHT31;67751;51.986;5.696;2023-03-20T09:06:27;10.5;65.8
78455;SHT31;67751;51.986;5.696;2023-03-20T09:08:57;10.5;65.7
78455;SHT31;67751;51.986;5.696;2023-03-20T09:11:27;10.6;65.0
78455;SHT31;67751;51.986;5.696;2023-03-20T09:13:57;10.6;64.8
78455;SHT31;67751;51.986;5.696;2023-03-20T09:16:27;10.6;64.9
78455;SHT31;67751;51.986;5.696;2023-03-20T09:18:57;10.6;65.5
78455;SHT31;67751;51.986;5.696;2023-03-20T09:21:27;10.6;65.7
78455;SHT31;67751;51.986;5.696;2023-03-20T09:23:57;10.7;66.2
78455;SHT31;67751;51.986;5.696;2023-03-20T09:26:27;10.7;65.9
78455;SHT31;67751;51.986;5.696;2023-03-20T09:28:58;10.7;65.6
78455;SHT31;67751;51.986;5.696;2023-03-20T09:31:30;10.7;65.5
78455;SHT31;67751;51.986;5.696;2023-03-20T09:34:00;10.8;65.4
78455;SHT31;67751;51.986;5.696;2023-03-20T09:36:30;10.8;66.0
78455;SHT31;67751;51.986;5.696;2023-03-20T09:38:59;10.8;66.4
78455;SHT31;67751;51.986;5.696;2023-03-20T09:41:29;10.7;66.9
78455;SHT31;67751;51.986;5.696;2023-03-20T09:44:16;10.7;67.4
78455;SHT31;67751;51.986;5.696;2023-03-20T09:46:59;10.7;69.2
78455;SHT31;67751;51.986;5.696;2023-03-20T09:49:46;10.7;69.4
78455;SHT31;67751;51.986;5.696;2023-03-20T09:52:25;10.7;68.3
78455;SHT31;67751;51.986;5.696;2023-03-20T09:54:59;10.7;69.5
78455;SHT31;67751;51.986;5.696;2023-03-20T09:57:36;10.7;69.5
78455;SHT31;67751;51.986;5.696;2023-03-20T10:00:13;10.7;70.2
78455;SHT31;67751;51.986;5.696;2023-03-20T10:02:50;10.7;70.1
78455;SHT31;67751;51.986;5.696;2023-03-20T10:05:24;10.7;69.7
78455;SHT31;67751;51.986;5.696;2023-03-20T10:07:56;10.8;68.5
78455;SHT31;67751;51.986;5.696;2023-03-20T10:10:38;10.8;69.1
78455;SHT31;67751;51.986;5.696;2023-03-20T10:13:26;10.8;68.9
78455;SHT31;67751;51.986;5.696;2023-03-20T10:16:08;10.8;68.8
78455;SHT31;67751;51.986;5.696;2023-03-20T10:18:47;10.8;69.5
78455;SHT31;67751;51.986;5.696;2023-03-20T10:21:21;10.8;69.0
78455;SHT31;67751;51.986;5.696;2023-03-20T10:23:59;10.8;69.0
78455;SHT31;67751;51.986;5.696;2023-03-20T10:26:33;10.8;70.2
78455;SHT31;67751;51.986;5.696;2023-03-20T10:29:10;10.8;70.5
78455;SHT31;67751;51.986;5.696;2023-03-20T10:31:44;10.8;68.2
78455;SHT31;67751;51.986;5.696;2023-03-20T10:34:25;10.8;68.2
78455;SHT31;67751;51.986;5.696;2023-03-20T10:37:12;10.8;68.8
78455;SHT31;67751;51.986;5.696;2023-03-20T10:39:52;10.8;69.6
78455;SHT31;67751;51.986;5.696;2023-03-20T10:42:29;10.8;67.8
78455;SHT31;67751;51.986;5.696;2023-03-20T10:45:05;10.9;69.6
78455;SHT31;67751;51.986;5.696;2023-03-20T10:47:41;10.9;69.0
78455;SHT31;67751;51.986;5.696;2023-03-20T10:50:17;10.9;68.3
78455;SHT31;67751;51.986;5.696;2023-03-20T10:52:50;10.9;68.9
78455;SHT31;67751;51.986;5.696;2023-03-20T10:55:25;10.9;68.3
78455;SHT31;67751;51.986;5.696;2023-03-20T10:58:01;10.9;68.2
78455;SHT31;67751;51.986;5.696;2023-03-20T11:00:32;10.9;66.8
78455;SHT31;67751;51.986;5.696;2023-03-20T11:03:12;10.8;68.6
78455;SHT31;67751;51.986;5.696;2023-03-20T11:05:45;10.8;67.9
78455;SHT31;67751;51.986;5.696;2023-03-20T11:08:22;10.8;69.4
78455;SHT31;67751;51.986;5.696;2023-03-20T11:11:00;10.8;68.5
78455;SHT31;67751;51.986;5.696;2023-03-20T11:13:33;10.8;69.6
78455;SHT31;67751;51.986;5.696;2023-03-20T11:16:19;10.8;69.5
78455;SHT31;67751;51.986;5.696;2023-03-20T11:18:50;10.8;70.7
78455;SHT31;67751;51.986;5.696;2023-03-20T11:21:25;10.9;69.3
78455;SHT31;67751;51.986;5.696;2023-03-20T11:23:55;10.9;70.5
78455;SHT31;67751;51.986;5.696;2023-03-20T11:26:36;10.9;71.1
78455;SHT31;67751;51.986;5.696;2023-03-20T11:29:12;10.9;70.8
78455;SHT31;67751;51.986;5.696;2023-03-20T11:31:43;10.9;69.7
78455;SHT31;67751;51.986;5.696;2023-03-20T11:34:22;10.9;69.3
78455;SHT31;67751;51.986;5.696;2023-03-20T11:36:56;10.9;69.1
78455;SHT31;67751;51.986;5.696;2023-03-20T11:39:28;10.9;69.0
78455;SHT31;67751;51.986;5.696;2023-03-20T11:42:00;10.9;69.0
78455;SHT31;67751;51.986;5.696;2023-03-20T11:44:32;10.9;69.5
78455;SHT31;67751;51.986;5.696;2023-03-20T11:47:05;10.9;70.0
78455;SHT31;67751;51.986;5.696;2023-03-20T11:49:47;10.9;70.0
78455;SHT31;67751;51.986;5.696;2023-03-20T11:52:21;10.9;71.0
78455;SHT31;67751;51.986;5.696;2023-03-20T11:54:54;10.9;70.1
78455;SHT31;67751;51.986;5.696;2023-03-20T11:57:31;11.0;69.0
78455;SHT31;67751;51.986;5.696;2023-03-20T12:00:04;11.0;70.0
78455;SHT31;67751;51.986;5.696;2023-03-20T12:02:36;11.0;69.7
78455;SHT31;67751;51.986;5.696;2023-03-20T12:05:29;11.0;68.4
78455;SHT31;67751;51.986;5.696;2023-03-20T12:08:04;11.0;68.5
78455;SHT31;67751;51.986;5.696;2023-03-20T12:10:39;11.0;70.3
78455;SHT31;67751;51.986;5.696;2023-03-20T12:13:15;11.0;68.8
78455;SHT31;67751;51.986;5.696;2023-03-20T12:15:52;11.0;70.2
78455;SHT31;67751;51.986;5.696;2023-03-20T12:18:29;11.0;70.7
78455;SHT31;67751;51.986;5.696;2023-03-20T12:21:08;11.0;71.4
78455;SHT31;67751;51.986;5.696;2023-03-20T12:23:44;11.0;72.3
78455;SHT31;67751;51.986;5.696;2023-03-20T12:26:20;11.0;70.9
78455;SHT31;67751;51.986;5.696;2023-03-20T12:28:56;11.0;71.2
78455;SHT31;67751;51.986;5.696;2023-03-20T12:31:33;11.0;71.9
78455;SHT31;67751;51.986;5.696;2023-03-20T12:34:08;11.0;72.4
78455;SHT31;67751;51.986;5.696;2023-03-20T12:36:42;10.9;72.3
78455;SHT31;67751;51.986;5.696;2023-03-20T12:39:14;10.9;73.2
78455;SHT31;67751;51.986;5.696;2023-03-20T12:42:00;11.0;73.4
78455;SHT31;67751;51.986;5.696;2023-03-20T12:44:39;11.0;72.7
78455;SHT31;67751;51.986;5.696;2023-03-20T12:47:36;11.0;73.3
78455;SHT31;67751;51.986;5.696;2023-03-20T12:50:19;11.0;73.5
78455;SHT31;67751;51.986;5.696;2023-03-20T12:53:03;11.0;72.8
78455;SHT31;67751;51.986;5.696;2023-03-20T12:55:47;11.0;72.9
78455;SHT31;67751;51.986;5.696;2023-03-20T12:58:28;11.0;73.1
78455;SHT31;67751;51.986;5.696;2023-03-20T13:01:05;11.0;72.6
78455;SHT31;67751;51.986;5.696;2023-03-20T13:04:09;11.0;72.9
78455;SHT31;67751;51.986;5.696;2023-03-20T13:06:52;11.0;72.1
78455;SHT31;67751;51.986;5.696;2023-03-20T13:11:33;11.0;73.6
78455;SHT31;67751;51.986;5.696;2023-03-20T13:14:13;11.0;73.2
78455;SHT31;67751;51.986;5.696;2023-03-20T13:16:50;11.0;73.3
78455;SHT31;67751;51.986;5.696;2023-03-20T13:19:27;11.0;73.6
78455;SHT31;67751;51.986;5.696;2023-03-20T13:22:06;11.0;73.6
78455;SHT31;67751;51.986;5.696;2023-03-20T13:24:40;11.1;73.2
78455;SHT31;67751;51.986;5.696;2023-03-20T13:27:19;11.1;73.3
78455;SHT31;67751;51.986;5.696;2023-03-20T13:30:03;11.1;74.0
78455;SHT31;67751;51.986;5.696;2023-03-20T13:32:48;11.1;73.0
78455;SHT31;67751;51.986;5.696;2023-03-20T13:35:31;11.1;72.9
78455;SHT31;67751;51.986;5.696;2023-03-20T13:38:14;11.1;73.5
78455;SHT31;67751;51.986;5.696;2023-03-20T13:40:57;11.1;73.7
78455;SHT31;67751;51.986;5.696;2023-03-20T13:43:27;11.2;73.5
78455;SHT31;67751;51.986;5.696;2023-03-20T13:46:02;11.2;73.0
78455;SHT31;67751;51.986;5.696;2023-03-20T13:48:36;11.2;72.5
78455;SHT31;67751;51.986;5.696;2023-03-20T13:51:15;11.2;72.8
78455;SHT31;67751;51.986;5.696;2023-03-20T13:54:05;11.2;73.1
78455;SHT31;67751;51.986;5.696;2023-03-20T13:56:42;11.2;73.5
78455;SHT31;67751;51.986;5.696;2023-03-20T14:00:08;11.2;73.3
78455;SHT31;67751;51.986;5.696;2023-03-20T14:03:02;11.2;74.3
78455;SHT31;67751;51.986;5.696;2023-03-20T14:05:38;11.2;74.0
78455;SHT31;67751;51.986;5.696;2023-03-20T14:09:31;11.2;73.7
78455;SHT31;67751;51.986;5.696;2023-03-20T14:12:04;11.2;74.3
78455;SHT31;67751;51.986;5.696;2023-03-20T14:14:42;11.2;74.0
78455;SHT31;67751;51.986;5.696;2023-03-20T14:17:20;11.2;73.9
78455;SHT31;67751;51.986;5.696;2023-03-20T14:19:52;11.2;74.1
78455;SHT31;67751;51.986;5.696;2023-03-20T14:22:27;11.2;74.0
78455;SHT31;67751;51.986;5.696;2023-03-20T14:24:59;11.2;74.2
78455;SHT31;67751;51.986;5.696;2023-03-20T14:27:53;11.1;74.7
78455;SHT31;67751;51.986;5.696;2023-03-20T14:30:44;11.1;75.0
78455;SHT31;67751;51.986;5.696;2023-03-20T14:33:27;11.1;74.8
78455;SHT31;67751;51.986;5.696;2023-03-20T14:36:18;11.1;74.6
78455;SHT31;67751;51.986;5.696;2023-03-20T14:39:11;11.1;75.2
78455;SHT31;67751;51.986;5.696;2023-03-20T14:42:01;11.2;75.0
78455;SHT31;67751;51.986;5.696;2023-03-20T14:44:49;11.2;75.0
78455;SHT31;67751;51.986;5.696;2023-03-20T14:47:35;11.2;75.1
78455;SHT31;67751;51.986;5.696;2023-03-20T14:50:15;11.2;74.3
78455;SHT31;67751;51.986;5.696;2023-03-20T14:52:52;11.2;75.1
78455;SHT31;67751;51.986;5.696;2023-03-20T14:55:56;11.2;75.1
78455;SHT31;67751;51.986;5.696;2023-03-20T14:58:47;11.2;75.5
78455;SHT31;67751;51.986;5.696;2023-03-20T15:01:26;11.3;75.6
78455;SHT31;67751;51.986;5.696;2023-03-20T15:04:03;11.3;75.7
78455;SHT31;67751;51.986;5.696;2023-03-20T15:06:44;11.3;75.4
78455;SHT31;67751;51.986;5.696;2023-03-20T15:09:15;11.3;75.4
78455;SHT31;67751;51.986;5.696;2023-03-20T15:11:45;11.3;75.0
78455;SHT31;67751;51.986;5.696;2023-03-20T15:14:21;11.4;75.3
78455;SHT31;67751;51.986;5.696;2023-03-20T15:16:58;11.4;75.2
78455;SHT31;67751;51.986;5.696;2023-03-20T15:19:29;11.4;74.6
78455;SHT31;67751;51.986;5.696;2023-03-20T15:22:00;11.4;74.0
78455;SHT31;67751;51.986;5.696;2023-03-20T15:24:31;11.4;74.4
78455;SHT31;67751;51.986;5.696;2023-03-20T15:27:01;11.3;74.5
78455;SHT31;67751;51.986;5.696;2023-03-20T15:29:33;11.3;74.2
78455;SHT31;67751;51.986;5.696;2023-03-20T15:32:03;11.3;74.2
78455;SHT31;67751;51.986;5.696;2023-03-20T15:34:33;11.3;74.4
78455;SHT31;67751;51.986;5.696;2023-03-20T15:37:02;11.3;74.4
78455;SHT31;67751;51.986;5.696;2023-03-20T15:39:42;11.3;74.7
78455;SHT31;67751;51.986;5.696;2023-03-20T15:42:15;11.2;74.9
78455;SHT31;67751;51.986;5.696;2023-03-20T15:44:48;11.2;75.1
78455;SHT31;67751;51.986;5.696;2023-03-20T15:47:20;11.2;75.4
78455;SHT31;67751;51.986;5.696;2023-03-20T15:49:54;11.2;75.3
78455;SHT31;67751;51.986;5.696;2023-03-20T15:52:32;11.2;75.3
78455;SHT31;67751;51.986;5.696;2023-03-20T15:55:06;11.2;75.4
78455;SHT31;67751;51.986;5.696;2023-03-20T15:57:38;11.2;75.6
78455;SHT31;67751;51.986;5.696;2023-03-20T16:00:15;11.2;75.4
78455;SHT31;67751;51.986;5.696;2023-03-20T16:02:47;11.2;75.6
78455;SHT31;67751;51.986;5.696;2023-03-20T16:05:22;11.2;75.6
78455;SHT31;67751;51.986;5.696;2023-03-20T16:07:53;11.2;75.7
78455;SHT31;67751;51.986;5.696;2023-03-20T16:10:28;11.2;75.9
78455;SHT31;67751;51.986;5.696;2023-03-20T16:13:01;11.2;75.5
78455;SHT31;67751;51.986;5.696;2023-03-20T16:15:33;11.2;75.6
78455;SHT31;67751;51.986;5.696;2023-03-20T16:18:05;11.2;75.6
78455;SHT31;67751;51.986;5.696;2023-03-20T16:20:38;11.2;75.9
78455;SHT31;67751;51.986;5.696;2023-03-20T16:23:15;11.2;75.8
78455;SHT31;67751;51.986;5.696;2023-03-20T16:25:48;11.2;76.1
78455;SHT31;67751;51.986;5.696;2023-03-20T16:28:19;11.2;75.8
78455;SHT31;67751;51.986;5.696;2023-03-20T16:30:49;11.2;75.8
78455;SHT31;67751;51.986;5.696;2023-03-20T16:33:19;11.3;75.9
78455;SHT31;67751;51.986;5.696;2023-03-20T16:35:49;11.3;76.0
78455;SHT31;67751;51.986;5.696;2023-03-20T16:38:26;11.3;76.2
78455;SHT31;67751;51.986;5.696;2023-03-20T16:41:26;11.3;76.0
78455;SHT31;67751;51.986;5.696;2023-03-20T16:43:56;11.3;76.0
78455;SHT31;67751;51.986;5.696;2023-03-20T16:46:28;11.4;76.0
78455;SHT31;67751;51.986;5.696;2023-03-20T16:49:20;11.4;75.9
78455;SHT31;67751;51.986;5.696;2023-03-20T16:51:51;11.4;75.6
78455;SHT31;67751;51.986;5.696;2023-03-20T16:54:27;11.4;75.3
78455;SHT31;67751;51.986;5.696;2023-03-20T16:56:59;11.4;75.4